createdAt,value
2019-01-19T00:00:11.503Z,-3.20
2019-01-19T00:02:57.674Z,-3.20
2019-01-19T00:05:42.258Z,-3.40
2019-01-19T00:08:20.706Z,-3.60
2019-01-19T00:11:00.363Z,-3.50
2019-01-19T00:13:35.787Z,-3.30
2019-01-19T00:16:20.473Z,-3.30
2019-01-19T00:19:02.214Z,-3.30
2019-01-19T00:21:36.275Z,-3.30
2019-01-19T00:24:25.347Z,-3.40
2019-01-19T00:27:20.381Z,-3.40
2019-01-19T00:30:01.333Z,-3.30
2019-01-19T00:32:53.427Z,-3.30
2019-01-19T00:35:31.935Z,-3.30
2019-01-19T00:38:10.711Z,-3.20
2019-01-19T00:40:44.735Z,-3.30
2019-01-19T00:43:15.129Z,-3.30
2019-01-19T00:45:54.938Z,-3.30
2019-01-19T00:48:36.660Z,-3.30
2019-01-19T00:51:25.627Z,-3.30
2019-01-19T00:54:13.406Z,-3.20
2019-01-19T00:56:49.063Z,-3.30
2019-01-19T00:59:21.820Z,-3.40
2019-01-19T01:02:20.404Z,-3.40
2019-01-19T01:04:56.167Z,-3.70
2019-01-19T01:07:43.839Z,-3.70
2019-01-19T01:10:25.527Z,-3.60
2019-01-19T01:13:17.819Z,-3.70
2019-01-19T01:16:13.064Z,-3.70
2019-01-19T01:18:54.498Z,-3.60
2019-01-19T01:21:48.104Z,-3.50
2019-01-19T01:24:26.751Z,-3.60
2019-01-19T01:27:06.366Z,-3.70
2019-01-19T01:30:12.619Z,-3.90
2019-01-19T01:32:56.009Z,-3.90
2019-01-19T01:35:45.131Z,-4.00
2019-01-19T01:38:20.647Z,-3.90
2019-01-19T01:40:59.200Z,-4.00
2019-01-19T01:43:31.875Z,-3.90
2019-01-19T01:46:20.952Z,-3.90
2019-01-19T01:49:08.556Z,-3.90
2019-01-19T01:51:59.351Z,-4.00
2019-01-19T01:54:34.826Z,-4.20
2019-01-19T01:57:08.820Z,-4.20
2019-01-19T02:00:16.265Z,-4.20
2019-01-19T02:02:53.172Z,-4.40
2019-01-19T02:05:31.739Z,-4.30
2019-01-19T02:08:13.322Z,-4.40
2019-01-19T02:10:59.370Z,-4.50
2019-01-19T02:13:40.890Z,-4.70
2019-01-19T02:16:47.134Z,-4.70
2019-01-19T02:19:25.782Z,-5.00
2019-01-19T02:21:58.558Z,-4.80
2019-01-19T02:24:43.506Z,-4.80
2019-01-19T02:27:32.978Z,-4.80
2019-01-19T02:30:08.282Z,-4.80
2019-01-19T02:32:47.960Z,-4.90
2019-01-19T02:35:29.596Z,-5.30
2019-01-19T02:38:02.275Z,-5.20
2019-01-19T02:40:42.766Z,-5.00
2019-01-19T02:43:24.279Z,-4.90
2019-01-19T02:46:13.274Z,-5.20
2019-01-19T02:48:57.719Z,-5.00
2019-01-19T02:51:46.687Z,-4.80
2019-01-19T02:54:22.376Z,-4.60
2019-01-19T02:57:03.810Z,-4.50
2019-01-19T02:59:36.547Z,-4.40
2019-01-19T03:02:28.069Z,-4.50
2019-01-19T03:05:03.278Z,-4.60
2019-01-19T03:07:49.635Z,-4.70
2019-01-19T03:10:31.201Z,-4.80
2019-01-19T03:13:12.629Z,-4.90
2019-01-19T03:15:55.211Z,-4.90
2019-01-19T03:18:27.977Z,-5.00
2019-01-19T03:21:00.710Z,-4.90
2019-01-19T03:23:53.011Z,-4.80
2019-01-19T03:26:37.479Z,-4.70
2019-01-19T03:29:22.680Z,-4.60
2019-01-19T03:32:10.143Z,-4.60
2019-01-19T03:34:48.465Z,-4.50
2019-01-19T03:37:22.503Z,-4.50
2019-01-19T03:40:04.053Z,-4.50
2019-01-19T03:42:59.416Z,-4.70
2019-01-19T03:45:43.988Z,-4.80
2019-01-19T03:48:22.347Z,-4.90
2019-01-19T03:50:59.698Z,-5.00
2019-01-19T03:53:32.478Z,-4.90
2019-01-19T03:56:11.169Z,-5.10
2019-01-19T03:58:53.059Z,-5.20
2019-01-19T04:01:41.547Z,-5.20
2019-01-19T04:04:17.128Z,-5.40
2019-01-19T04:06:58.686Z,-5.50
2019-01-19T04:09:40.270Z,-5.50
2019-01-19T04:12:18.734Z,-5.20
2019-01-19T04:14:54.220Z,-5.20
2019-01-19T04:17:41.963Z,-5.00
2019-01-19T04:20:26.692Z,-5.00
2019-01-19T04:22:57.223Z,-5.10
2019-01-19T04:25:31.435Z,-5.10
2019-01-19T04:28:02.486Z,-5.00
2019-01-19T04:30:31.999Z,-5.00
2019-01-19T04:33:01.489Z,-4.90
2019-01-19T04:35:32.507Z,-5.00
2019-01-19T04:38:01.914Z,-5.00
2019-01-19T04:40:32.830Z,-5.00
2019-01-19T04:43:02.679Z,-5.00
2019-01-19T04:45:33.389Z,-5.10
2019-01-19T04:48:02.807Z,-5.30
2019-01-19T04:50:32.255Z,-5.30
2019-01-19T04:53:01.672Z,-5.30
2019-01-19T04:55:31.190Z,-5.40
2019-01-19T04:58:00.601Z,-5.50
2019-01-19T05:00:30.046Z,-5.50
2019-01-19T05:02:59.441Z,-5.60
2019-01-19T05:05:30.372Z,-5.70
2019-01-19T05:07:59.775Z,-5.70
2019-01-19T05:10:29.294Z,-5.70
2019-01-19T05:12:58.703Z,-5.50
2019-01-19T05:15:28.142Z,-5.30
2019-01-19T05:17:57.827Z,-5.30
2019-01-19T05:20:27.272Z,-5.40
2019-01-19T05:22:56.685Z,-5.30
2019-01-19T05:25:27.398Z,-5.30
2019-01-19T05:27:56.964Z,-5.30
2019-01-19T05:30:26.401Z,-5.30
2019-01-19T05:32:55.804Z,-5.30
2019-01-19T05:35:25.237Z,-5.30
2019-01-19T05:37:54.647Z,-5.40
2019-01-19T05:40:24.158Z,-5.40
2019-01-19T05:42:53.569Z,-5.60
2019-01-19T05:45:23.011Z,-5.70
2019-01-19T05:47:52.420Z,-5.80
2019-01-19T05:50:23.328Z,-5.70
2019-01-19T05:52:52.730Z,-5.70
2019-01-19T05:55:23.471Z,-5.80
2019-01-19T05:57:52.873Z,-5.70
2019-01-19T06:00:26.161Z,-5.70
2019-01-19T06:02:55.637Z,-5.70
2019-01-19T06:05:26.355Z,-5.70
2019-01-19T06:07:55.826Z,-5.70
2019-01-19T06:10:26.538Z,-5.70
2019-01-19T06:12:55.983Z,-5.50
2019-01-19T06:15:26.654Z,-5.50
2019-01-19T06:17:56.094Z,-5.60
2019-01-19T06:20:25.498Z,-5.60
2019-01-19T06:22:54.946Z,-5.60
2019-01-19T06:25:24.361Z,-5.70
2019-01-19T06:27:53.807Z,-5.90
2019-01-19T06:30:24.383Z,-5.90
2019-01-19T06:32:53.828Z,-5.90
2019-01-19T06:35:23.311Z,-5.90
2019-01-19T06:37:52.750Z,-5.90
2019-01-19T06:40:22.171Z,-5.90
2019-01-19T06:42:52.875Z,-5.90
2019-01-19T06:45:23.831Z,-6.00
2019-01-19T06:47:53.283Z,-6.00
2019-01-19T06:50:23.365Z,-5.80
2019-01-19T06:52:52.816Z,-5.80
2019-01-19T06:55:26.235Z,-5.80
2019-01-19T06:57:55.687Z,-5.80
2019-01-19T07:00:25.101Z,-5.80
2019-01-19T07:02:54.554Z,-5.80
2019-01-19T07:05:23.971Z,-5.90
2019-01-19T07:07:53.419Z,-5.90
2019-01-19T07:10:25.639Z,-6.00
2019-01-19T07:12:55.164Z,-5.90
2019-01-19T07:15:24.578Z,-5.70
2019-01-19T07:17:54.030Z,-5.80
2019-01-19T07:20:29.038Z,-5.70
2019-01-19T07:22:58.489Z,-5.60
2019-01-19T07:25:27.909Z,-5.70
2019-01-19T07:27:57.368Z,-5.80
2019-01-19T07:30:28.063Z,-5.80
2019-01-19T07:32:57.505Z,-5.70
2019-01-19T07:35:26.954Z,-5.60
2019-01-19T07:37:56.400Z,-5.70
2019-01-19T07:40:27.135Z,-6.10
2019-01-19T07:42:58.199Z,-5.80
2019-01-19T07:45:27.774Z,-5.60
2019-01-19T07:47:57.532Z,-5.40
2019-01-19T07:50:28.322Z,-5.20
2019-01-19T07:52:57.814Z,-5.00
2019-01-19T07:55:27.326Z,-4.80
2019-01-19T07:57:56.798Z,-4.50
2019-01-19T08:00:30.022Z,-4.00
2019-01-19T08:02:59.427Z,-3.00
2019-01-19T08:05:30.458Z,-1.90
2019-01-19T08:07:59.879Z,-0.80
2019-01-19T08:10:30.890Z,0.20
2019-01-19T08:13:00.606Z,1.10
2019-01-19T08:15:30.208Z,1.70
2019-01-19T08:17:59.618Z,2.00
2019-01-19T08:20:30.600Z,2.40
2019-01-19T08:22:59.994Z,2.60
2019-01-19T08:25:29.442Z,2.80
2019-01-19T08:27:58.924Z,3.30
2019-01-19T08:30:29.775Z,2.80
2019-01-19T08:33:00.724Z,4.20
2019-01-19T08:35:32.174Z,4.60
2019-01-19T08:38:01.667Z,5.60
2019-01-19T08:40:33.925Z,6.50
2019-01-19T08:43:14.166Z,6.80
2019-01-19T08:45:45.176Z,6.50
2019-01-19T08:48:14.959Z,7.10
2019-01-19T08:50:44.490Z,7.40
2019-01-19T08:53:15.067Z,7.20
2019-01-19T08:55:46.342Z,7.30
2019-01-19T08:58:15.746Z,7.50
2019-01-19T09:00:46.451Z,8.00
2019-01-19T09:03:16.250Z,8.50
2019-01-19T09:05:47.019Z,8.20
2019-01-19T09:08:16.530Z,9.30
2019-01-19T09:10:47.309Z,8.70
2019-01-19T09:13:17.417Z,9.20
2019-01-19T09:15:46.878Z,9.40
2019-01-19T09:18:16.323Z,9.50
2019-01-19T09:20:45.809Z,9.60
2019-01-19T09:23:18.365Z,9.90
2019-01-19T09:25:49.151Z,9.90
2019-01-19T09:28:18.603Z,10.30
2019-01-19T09:30:49.375Z,10.70
2019-01-19T09:33:18.832Z,11.00
2019-01-19T09:35:48.250Z,10.70
2019-01-19T09:38:17.695Z,10.20
2019-01-19T09:40:47.187Z,10.50
2019-01-19T09:43:18.253Z,9.90
2019-01-19T09:45:49.018Z,10.80
2019-01-19T09:48:18.460Z,10.80
2019-01-19T09:50:49.139Z,10.90
2019-01-19T09:53:18.579Z,11.10
2019-01-19T09:55:49.438Z,11.10
2019-01-19T09:58:18.878Z,12.20
2019-01-19T10:00:48.291Z,12.60
2019-01-19T10:03:17.801Z,12.30
2019-01-19T10:05:48.571Z,11.60
2019-01-19T10:08:18.083Z,11.40
2019-01-19T10:10:47.728Z,11.70
2019-01-19T10:13:17.168Z,11.30
2019-01-19T10:15:46.643Z,10.70
2019-01-19T10:18:16.152Z,10.60
2019-01-19T10:20:45.565Z,10.40
2019-01-19T10:23:15.768Z,11.00
2019-01-19T10:25:45.243Z,11.70
2019-01-19T10:28:14.673Z,11.90
2019-01-19T10:30:45.524Z,12.10
2019-01-19T10:33:14.965Z,12.10
2019-01-19T10:35:44.376Z,12.40
2019-01-19T10:38:13.977Z,11.30
2019-01-19T10:40:44.764Z,11.60
2019-01-19T10:43:14.670Z,11.20
2019-01-19T10:45:44.069Z,11.10
2019-01-19T10:48:14.283Z,10.60
2019-01-19T10:50:44.949Z,10.80
2019-01-19T10:53:15.979Z,11.60
2019-01-19T10:55:45.382Z,11.80
2019-01-19T10:58:14.789Z,11.90
2019-01-19T11:00:44.223Z,12.20
2019-01-19T11:03:13.628Z,11.10
2019-01-19T11:05:44.445Z,11.60
2019-01-19T11:08:14.614Z,12.60
2019-01-19T11:10:44.051Z,12.80
2019-01-19T11:13:13.455Z,11.80
2019-01-19T11:15:44.364Z,12.00
2019-01-19T11:18:15.651Z,13.30
2019-01-19T11:20:46.733Z,13.70
2019-01-19T11:23:16.150Z,13.40
2019-01-19T11:25:45.589Z,13.40
2019-01-19T11:28:14.996Z,14.30
2019-01-19T11:30:45.876Z,13.70
2019-01-19T11:33:15.279Z,13.90
2019-01-19T11:35:46.096Z,13.80
2019-01-19T11:38:20.115Z,12.20
2019-01-19T11:40:48.111Z,11.00
2019-01-19T11:43:17.516Z,12.60
2019-01-19T11:45:48.536Z,13.30
2019-01-19T11:48:17.931Z,12.70
2019-01-19T11:50:47.442Z,12.10
2019-01-19T11:53:16.845Z,13.10
2019-01-19T11:55:46.355Z,13.80
2019-01-19T11:58:15.831Z,13.80
2019-01-19T12:00:45.272Z,13.50
2019-01-19T12:03:15.242Z,13.00
2019-01-19T12:05:46.296Z,12.00
2019-01-19T12:08:19.706Z,12.70
2019-01-19T12:10:48.305Z,13.10
2019-01-19T12:13:17.714Z,13.40
2019-01-19T12:15:47.161Z,13.60
2019-01-19T12:18:16.570Z,13.80
2019-01-19T12:20:46.007Z,13.60
2019-01-19T12:23:15.787Z,13.70
2019-01-19T12:25:45.310Z,13.80
2019-01-19T12:28:16.086Z,13.70
2019-01-19T12:30:46.815Z,13.70
2019-01-19T12:33:16.225Z,14.20
2019-01-19T12:35:48.623Z,14.20
2019-01-19T12:38:18.027Z,14.40
2019-01-19T12:40:47.434Z,15.00
2019-01-19T12:43:17.607Z,14.60
2019-01-19T12:45:52.534Z,14.30
2019-01-19T12:48:22.934Z,13.60
2019-01-19T12:50:53.803Z,13.80
2019-01-19T12:53:23.243Z,13.80
2019-01-19T12:55:52.645Z,14.10
2019-01-19T12:58:22.095Z,13.80
2019-01-19T13:00:51.507Z,13.30
2019-01-19T13:03:20.940Z,13.50
2019-01-19T13:05:57.768Z,12.40
2019-01-19T13:08:34.327Z,12.40
2019-01-19T13:11:22.405Z,11.10
2019-01-19T13:13:51.918Z,9.50
2019-01-19T13:16:34.750Z,7.80
2019-01-19T13:19:16.028Z,7.30
2019-01-19T13:21:55.844Z,6.60
2019-01-19T13:24:31.485Z,6.10
2019-01-19T13:27:09.647Z,5.50
2019-01-19T13:29:51.440Z,5.40
2019-01-19T13:32:52.494Z,4.80
2019-01-19T13:35:47.539Z,4.60
2019-01-19T13:38:41.804Z,4.50
2019-01-19T13:41:18.740Z,4.40
2019-01-19T13:44:12.515Z,4.30
2019-01-19T13:47:01.476Z,4.30
2019-01-19T13:50:02.903Z,4.10
2019-01-19T13:52:37.049Z,3.80
2019-01-19T13:55:26.256Z,3.20
2019-01-19T13:58:02.067Z,2.90
2019-01-19T14:00:54.179Z,2.70
2019-01-19T14:03:32.415Z,2.70
2019-01-19T14:06:12.039Z,2.50
2019-01-19T14:09:04.333Z,2.40
2019-01-19T14:11:57.703Z,2.40
2019-01-19T14:14:39.441Z,2.20
2019-01-19T14:17:40.689Z,2.00
2019-01-19T14:20:13.451Z,1.90
2019-01-19T14:23:11.575Z,1.90
2019-01-19T14:25:46.832Z,1.70
2019-01-19T14:28:25.241Z,1.70
2019-01-19T14:31:05.334Z,1.60
2019-01-19T14:33:46.806Z,1.60
2019-01-19T14:36:25.235Z,1.60
2019-01-19T14:39:06.753Z,1.60
2019-01-19T14:41:51.803Z,1.60
2019-01-19T14:44:41.015Z,1.60
2019-01-19T14:47:17.506Z,1.60
2019-01-19T14:49:53.155Z,1.60
2019-01-19T14:52:29.767Z,1.50
2019-01-19T14:55:20.231Z,1.40
2019-01-19T14:57:59.716Z,1.30
2019-01-19T15:00:50.258Z,1.20
2019-01-19T15:03:40.800Z,1.10
2019-01-19T15:06:13.618Z,1.20
2019-01-19T15:08:48.977Z,1.20
2019-01-19T15:11:43.942Z,1.20
2019-01-19T15:14:23.100Z,1.10
2019-01-19T15:16:58.515Z,0.90
2019-01-19T15:19:33.862Z,0.80
2019-01-19T15:22:12.254Z,0.80
2019-01-19T15:24:47.564Z,0.80
2019-01-19T15:27:53.442Z,0.80
2019-01-19T15:30:47.267Z,0.70
2019-01-19T15:33:39.416Z,0.70
2019-01-19T15:36:20.730Z,0.60
2019-01-19T15:38:55.969Z,0.60
2019-01-19T15:41:35.957Z,0.20
2019-01-19T15:44:15.577Z,0.10
2019-01-19T15:46:48.385Z,0.20
2019-01-19T15:49:40.670Z,0.30
2019-01-19T15:52:31.420Z,0.10
2019-01-19T15:55:25.390Z,0.20
2019-01-19T15:58:14.551Z,0.00
2019-01-19T16:00:51.399Z,-0.30
2019-01-19T16:03:24.093Z,-0.60
2019-01-19T16:06:02.594Z,-0.80
2019-01-19T16:08:43.606Z,-0.60
2019-01-19T16:11:20.691Z,-0.60
2019-01-19T16:13:56.337Z,-0.40
2019-01-19T16:16:53.387Z,-0.40
2019-01-19T16:19:43.978Z,-0.30
2019-01-19T16:22:39.166Z,-0.30
2019-01-19T16:25:32.976Z,-0.30
2019-01-19T16:28:22.279Z,-0.40
2019-01-19T16:31:07.978Z,-0.40
2019-01-19T16:33:49.901Z,-0.40
2019-01-19T16:36:26.461Z,-0.40
2019-01-19T16:39:06.307Z,-0.50
2019-01-19T16:41:48.520Z,-0.50
2019-01-19T16:44:55.991Z,-0.50
2019-01-19T16:47:32.905Z,-0.50
2019-01-19T16:50:22.531Z,-0.60
2019-01-19T16:53:01.211Z,-0.60
2019-01-19T16:55:53.871Z,-0.60
2019-01-19T16:58:38.453Z,-0.70
2019-01-19T17:01:15.506Z,-0.80
2019-01-19T17:03:51.259Z,-0.80
2019-01-19T17:06:23.998Z,-0.80
2019-01-19T17:09:24.555Z,-0.80
2019-01-19T17:12:16.210Z,-0.90
2019-01-19T17:15:04.031Z,-1.10
2019-01-19T17:17:47.231Z,-1.00
2019-01-19T17:20:31.563Z,-1.10
2019-01-19T17:23:19.119Z,-1.00
2019-01-19T17:26:11.170Z,-1.00
2019-01-19T17:28:46.422Z,-1.10
2019-01-19T17:31:25.183Z,-1.20
2019-01-19T17:34:21.943Z,-1.30
2019-01-19T17:36:59.117Z,-1.40
2019-01-19T17:39:47.104Z,-1.40
2019-01-19T17:42:28.685Z,-1.40
2019-01-19T17:45:25.347Z,-1.50
2019-01-19T17:48:01.046Z,-1.60
2019-01-19T17:50:56.383Z,-1.60
2019-01-19T17:53:31.560Z,-1.60
2019-01-19T17:56:12.985Z,-1.60
2019-01-19T17:58:57.510Z,-1.60
2019-01-19T18:01:40.283Z,-1.70
2019-01-19T18:04:30.761Z,-1.60
2019-01-19T18:07:15.346Z,-1.60
2019-01-19T18:09:56.862Z,-1.60
2019-01-19T18:12:49.052Z,-1.70
2019-01-19T18:15:52.203Z,-1.70
2019-01-19T18:18:47.251Z,-1.70
2019-01-19T18:21:28.714Z,-1.80
2019-01-19T18:24:16.171Z,-1.80
2019-01-19T18:26:51.493Z,-1.90
2019-01-19T18:29:38.994Z,-1.90
2019-01-19T18:32:18.621Z,-1.90
2019-01-19T18:34:54.393Z,-2.00
2019-01-19T18:37:31.455Z,-2.00
2019-01-19T18:40:28.330Z,-2.00
2019-01-19T18:43:06.870Z,-2.00
2019-01-19T18:45:40.818Z,-2.00
2019-01-19T18:48:28.002Z,-2.00
2019-01-19T18:51:16.172Z,-2.20
2019-01-19T18:54:03.949Z,-2.10
2019-01-19T18:56:54.491Z,-2.20
2019-01-19T18:59:35.452Z,-2.20
2019-01-19T19:02:18.271Z,-2.20
2019-01-19T19:05:11.875Z,-2.20
2019-01-19T19:07:51.615Z,-2.30
2019-01-19T19:10:56.001Z,-2.30
2019-01-19T19:13:31.138Z,-2.40
2019-01-19T19:16:11.355Z,-2.40
2019-01-19T19:19:00.826Z,-2.40
2019-01-19T19:22:00.706Z,-2.50
2019-01-19T19:24:51.683Z,-2.60
2019-01-19T19:27:46.796Z,-2.70
2019-01-19T19:30:25.358Z,-2.70
2019-01-19T19:33:16.080Z,-2.80
2019-01-19T19:36:22.135Z,-2.80
2019-01-19T19:38:57.658Z,-2.80
2019-01-19T19:41:33.271Z,-2.80
2019-01-19T19:44:21.483Z,-2.70
2019-01-19T19:47:12.863Z,-2.90
2019-01-19T19:49:54.300Z,-2.80
2019-01-19T19:52:27.871Z,-2.70
2019-01-19T19:54:54.071Z,-2.60
2019-01-19T19:57:23.483Z,-2.60
2019-01-19T19:59:53.004Z,-2.70
2019-01-19T20:02:23.686Z,-2.60
2019-01-19T20:04:53.256Z,-2.70
2019-01-19T20:07:24.106Z,-2.70
2019-01-19T20:09:53.555Z,-2.80
2019-01-19T20:12:24.914Z,-2.80
2019-01-19T20:14:54.423Z,-2.80
2019-01-19T20:17:23.837Z,-2.80
2019-01-19T20:19:53.315Z,-2.90
2019-01-19T20:22:24.201Z,-3.00
2019-01-19T20:24:53.739Z,-2.90
2019-01-19T20:27:23.155Z,-2.90
2019-01-19T20:29:52.598Z,-2.90
2019-01-19T20:32:22.011Z,-2.90
2019-01-19T20:34:51.465Z,-3.00
2019-01-19T20:37:20.873Z,-3.00
2019-01-19T20:39:50.391Z,-3.00
2019-01-19T20:42:21.182Z,-3.10
2019-01-19T20:44:50.632Z,-3.10
2019-01-19T20:47:21.714Z,-3.10
2019-01-19T20:49:51.175Z,-3.10
2019-01-19T20:52:20.722Z,-3.10
2019-01-19T20:54:50.173Z,-3.10
2019-01-19T20:57:21.427Z,-3.20
2019-01-19T20:59:50.955Z,-3.20
2019-01-19T21:02:21.747Z,-3.20
2019-01-19T21:04:51.280Z,-3.20
2019-01-19T21:07:21.998Z,-3.20
2019-01-19T21:09:51.412Z,-3.20
2019-01-19T21:12:20.932Z,-3.20
2019-01-19T21:14:50.353Z,-3.30
2019-01-19T21:17:21.339Z,-3.30
2019-01-19T21:19:50.831Z,-3.20
2019-01-19T21:22:20.361Z,-3.30
2019-01-19T21:24:49.794Z,-3.30
2019-01-19T21:27:19.247Z,-3.40
2019-01-19T21:29:48.662Z,-3.40
2019-01-19T21:32:19.370Z,-3.40
2019-01-19T21:34:48.854Z,-3.40
2019-01-19T21:37:19.663Z,-3.50
2019-01-19T21:39:49.218Z,-3.60
2019-01-19T21:42:18.668Z,-3.70
2019-01-19T21:44:48.086Z,-3.70
2019-01-19T21:47:17.572Z,-3.70
2019-01-19T21:49:46.982Z,-3.60
2019-01-19T21:52:16.503Z,-3.60
2019-01-19T21:54:45.986Z,-3.70
2019-01-19T21:57:15.601Z,-3.60
2019-01-19T21:59:45.019Z,-3.70
2019-01-19T22:02:16.312Z,-3.70
2019-01-19T22:04:45.788Z,-3.80
2019-01-19T22:07:15.307Z,-3.80
2019-01-19T22:09:44.782Z,-3.90
2019-01-19T22:12:15.500Z,-4.00
2019-01-19T22:14:44.987Z,-3.90
2019-01-19T22:17:14.500Z,-3.90
2019-01-19T22:19:43.991Z,-4.00
2019-01-19T22:22:13.450Z,-4.00
2019-01-19T22:24:42.939Z,-4.00
2019-01-19T22:27:14.556Z,-3.90
2019-01-19T22:29:44.115Z,-3.90
2019-01-19T22:32:13.632Z,-4.00
2019-01-19T22:34:43.117Z,-4.10
2019-01-19T22:37:14.004Z,-4.20
2019-01-19T22:39:43.519Z,-4.10
2019-01-19T22:42:14.416Z,-4.10
2019-01-19T22:44:43.878Z,-4.20
2019-01-19T22:47:13.290Z,-4.10
2019-01-19T22:49:42.739Z,-4.30
2019-01-19T22:52:13.437Z,-4.20
2019-01-19T22:54:42.893Z,-4.20
2019-01-19T22:57:12.362Z,-4.30
2019-01-19T22:59:41.803Z,-4.20
2019-01-19T23:02:12.762Z,-4.20
2019-01-19T23:04:42.348Z,-4.30
2019-01-19T23:07:13.135Z,-4.30
2019-01-19T23:09:42.655Z,-4.30
2019-01-19T23:12:12.146Z,-4.40
2019-01-19T23:14:42.522Z,-4.30
2019-01-19T23:17:12.007Z,-4.30
2019-01-19T23:19:41.519Z,-4.40
2019-01-19T23:22:12.606Z,-4.50
2019-01-19T23:24:42.118Z,-4.50
2019-01-19T23:27:13.082Z,-4.50
2019-01-19T23:29:42.526Z,-4.50
2019-01-19T23:32:13.316Z,-4.50
2019-01-19T23:34:42.830Z,-4.60
2019-01-19T23:37:12.246Z,-4.60
2019-01-19T23:39:41.791Z,-4.60
2019-01-19T23:42:12.748Z,-4.60
2019-01-19T23:44:42.282Z,-4.70
2019-01-19T23:47:13.250Z,-4.70
2019-01-19T23:49:42.811Z,-4.80
2019-01-19T23:52:13.600Z,-4.80
2019-01-19T23:54:43.133Z,-4.70
2019-01-19T23:57:12.608Z,-4.70
2019-01-19T23:59:42.038Z,-4.70
